createdAt,value
2023-01-13T00:00:55.639Z,1.52
2023-01-13T00:03:57.846Z,1.50
2023-01-13T00:06:59.519Z,1.48
2023-01-13T00:10:01.259Z,1.25
2023-01-13T00:13:04.680Z,1.52
2023-01-13T00:16:09.793Z,1.55
2023-01-13T00:19:11.438Z,1.70
2023-01-13T00:22:13.143Z,1.27
2023-01-13T00:25:15.384Z,1.40
2023-01-13T00:28:17.080Z,1.38
2023-01-13T00:31:21.055Z,1.63
2023-01-13T00:34:22.849Z,1.40
2023-01-13T00:37:25.888Z,1.45
2023-01-13T00:40:27.639Z,1.42
2023-01-13T00:43:30.877Z,1.73
2023-01-13T00:46:34.659Z,1.60
2023-01-13T00:49:43.145Z,1.50
2023-01-13T00:52:44.753Z,1.17
2023-01-13T00:55:46.441Z,1.30
2023-01-13T00:58:48.804Z,1.63
2023-01-13T01:01:50.625Z,1.30
2023-01-13T01:04:52.462Z,1.38
2023-01-13T01:07:54.614Z,1.40
2023-01-13T01:11:09.077Z,1.30
2023-01-13T01:14:13.193Z,1.38
2023-01-13T01:17:14.890Z,1.50
2023-01-13T01:20:16.982Z,1.80
2023-01-13T01:23:19.630Z,1.90
2023-01-13T01:26:25.091Z,1.58
2023-01-13T01:29:27.077Z,1.50
2023-01-13T01:32:28.730Z,1.60
2023-01-13T01:35:30.400Z,1.58
2023-01-13T01:38:32.050Z,1.52
2023-01-13T01:41:35.695Z,1.50
2023-01-13T01:45:01.535Z,1.77
2023-01-13T01:48:07.060Z,1.52
2023-01-13T01:51:19.669Z,1.48
2023-01-13T01:54:40.953Z,1.50
2023-01-13T01:57:57.798Z,1.40
2023-01-13T02:00:59.976Z,1.60
2023-01-13T02:04:09.592Z,1.60
2023-01-13T02:07:30.617Z,1.30
2023-01-13T02:10:32.689Z,1.50
2023-01-13T02:13:34.336Z,1.60
2023-01-13T02:16:40.804Z,1.67
2023-01-13T02:19:55.835Z,1.50
2023-01-13T02:23:36.066Z,1.52
2023-01-13T02:26:52.847Z,1.30
2023-01-13T02:30:23.660Z,1.48
2023-01-13T02:33:46.314Z,1.40
2023-01-13T02:37:07.481Z,1.20
2023-01-13T02:40:20.549Z,1.50
2023-01-13T02:44:08.275Z,1.50
2023-01-13T02:47:25.342Z,1.40
2023-01-13T02:50:35.963Z,1.40
2023-01-13T02:53:51.006Z,1.30
2023-01-13T02:56:55.878Z,1.30
2023-01-13T02:59:57.752Z,1.10
2023-01-13T03:03:00.756Z,1.25
2023-01-13T03:10:08.148Z,1.08
2023-01-13T03:13:21.019Z,1.40
2023-01-13T03:16:46.192Z,1.10
2023-01-13T03:19:56.796Z,1.30
2023-01-13T03:23:19.373Z,1.60
2023-01-13T03:26:31.865Z,1.40
2023-01-13T03:29:42.601Z,1.60
2023-01-13T03:32:53.080Z,1.30
2023-01-13T03:36:01.992Z,1.25
2023-01-13T03:39:10.204Z,1.48
2023-01-13T03:42:18.503Z,1.50
2023-01-13T03:45:20.595Z,1.38
2023-01-13T03:48:23.971Z,1.40
2023-01-13T03:51:33.912Z,1.20
2023-01-13T03:54:46.504Z,1.20
2023-01-13T03:57:59.804Z,1.30
2023-01-13T04:01:10.633Z,1.45
2023-01-13T04:04:25.423Z,1.50
2023-01-13T04:07:45.534Z,1.40
2023-01-13T04:10:53.857Z,1.40
2023-01-13T04:13:56.675Z,1.40
2023-01-13T04:16:58.351Z,1.42
2023-01-13T04:20:01.349Z,1.63
2023-01-13T04:23:02.887Z,1.30
2023-01-13T04:26:04.508Z,1.35
2023-01-13T04:29:06.086Z,1.40
2023-01-13T04:32:07.588Z,1.30
2023-01-13T04:35:09.291Z,1.40
2023-01-13T04:38:13.918Z,1.30
2023-01-13T04:41:15.521Z,1.30
2023-01-13T04:44:17.048Z,1.30
2023-01-13T04:47:19.555Z,1.30
2023-01-13T04:50:22.761Z,1.25
2023-01-13T04:53:24.359Z,1.33
2023-01-13T04:56:25.904Z,1.30
2023-01-13T04:59:35.035Z,1.40
2023-01-13T05:02:36.585Z,1.20
2023-01-13T05:05:39.402Z,1.40
2023-01-13T05:08:41.002Z,1.13
2023-01-13T05:12:04.309Z,1.23
2023-01-13T05:15:25.105Z,1.10
2023-01-13T05:18:31.198Z,1.35
2023-01-13T05:21:51.585Z,1.33
2023-01-13T05:25:11.679Z,0.95
2023-01-13T05:28:13.280Z,1.40
2023-01-13T05:31:15.490Z,1.30
2023-01-13T05:34:17.030Z,1.38
2023-01-13T05:37:18.584Z,1.20
2023-01-13T05:40:38.739Z,1.20
2023-01-13T05:43:40.441Z,1.20
2023-01-13T05:46:42.290Z,1.20
2023-01-13T05:52:50.193Z,1.20
2023-01-13T05:55:52.026Z,1.55
2023-01-13T05:58:53.576Z,1.58
2023-01-13T06:01:55.099Z,1.20
2023-01-13T06:04:56.688Z,1.48
2023-01-13T06:08:00.638Z,1.17
2023-01-13T06:11:05.034Z,1.20
2023-01-13T06:14:06.689Z,1.30
2023-01-13T06:17:11.065Z,1.10
2023-01-13T06:20:14.413Z,1.20
2023-01-13T06:23:15.990Z,1.52
2023-01-13T06:26:25.678Z,1.58
2023-01-13T06:29:27.313Z,1.30
2023-01-13T06:32:36.825Z,1.40
2023-01-13T06:35:41.355Z,1.15
2023-01-13T06:38:47.803Z,1.30
2023-01-13T06:42:13.646Z,1.42
2023-01-13T06:45:29.890Z,1.40
2023-01-13T06:48:35.093Z,1.30
2023-01-13T06:51:36.858Z,1.33
2023-01-13T06:54:42.612Z,1.25
2023-01-13T06:57:52.396Z,1.50
2023-01-13T07:00:54.155Z,1.50
2023-01-13T07:03:55.851Z,1.27
2023-01-13T07:06:57.402Z,1.38
2023-01-13T07:09:59.534Z,1.38
2023-01-13T07:13:21.479Z,1.20
2023-01-13T07:16:24.441Z,1.20
2023-01-13T07:19:26.077Z,1.10
2023-01-13T07:22:27.595Z,1.15
2023-01-13T07:25:29.171Z,1.30
2023-01-13T07:28:31.475Z,2.00
2023-01-13T07:31:33.430Z,1.52
2023-01-13T07:34:35.381Z,1.92
2023-01-13T07:37:40.594Z,1.65
2023-01-13T07:40:42.199Z,1.40
2023-01-13T07:43:43.929Z,1.30
2023-01-13T07:46:45.596Z,1.10
2023-01-13T07:49:47.356Z,1.35
2023-01-13T07:56:07.858Z,1.50
2023-01-13T07:59:09.905Z,1.40
2023-01-13T08:02:18.086Z,1.40
2023-01-13T08:05:20.795Z,1.50
2023-01-13T08:08:22.441Z,1.50
2023-01-13T08:11:24.142Z,1.60
2023-01-13T08:14:25.769Z,1.50
2023-01-13T08:17:27.375Z,1.17
2023-01-13T08:20:29.286Z,2.20
2023-01-13T08:23:30.963Z,2.00
2023-01-13T08:26:32.912Z,2.10
2023-01-13T08:29:36.185Z,1.67
2023-01-13T08:32:44.302Z,2.00
2023-01-13T08:36:00.172Z,1.70
2023-01-13T08:39:19.761Z,1.85
2023-01-13T08:42:50.779Z,2.55
2023-01-13T08:46:00.735Z,2.05
2023-01-13T08:49:28.053Z,1.98
2023-01-13T08:52:39.577Z,1.92
2023-01-13T08:55:41.212Z,1.67
2023-01-13T08:58:42.841Z,2.38
2023-01-13T09:01:45.440Z,2.88
2023-01-13T09:04:47.606Z,2.67
2023-01-13T09:07:49.247Z,2.58
2023-01-13T09:10:51.931Z,1.98
2023-01-13T09:13:53.592Z,3.95
2023-01-13T09:16:55.411Z,3.15
2023-01-13T09:19:57.190Z,2.30
2023-01-13T09:22:58.866Z,2.17
2023-01-13T09:26:01.822Z,1.75
2023-01-13T09:29:07.502Z,1.70
2023-01-13T09:32:12.545Z,1.70
2023-01-13T09:35:14.352Z,1.58
2023-01-13T09:38:15.958Z,1.52
2023-01-13T09:41:43.828Z,1.90
2023-01-13T09:45:09.173Z,1.60
2023-01-13T09:48:51.754Z,1.58
2023-01-13T09:52:28.523Z,1.70
2023-01-13T09:55:36.657Z,1.70
2023-01-13T09:58:40.336Z,1.80
2023-01-13T10:01:47.777Z,1.85
2023-01-13T10:05:34.127Z,1.70
2023-01-13T10:08:55.990Z,1.60
2023-01-13T10:12:18.873Z,1.50
2023-01-13T10:15:23.369Z,1.73
2023-01-13T10:18:43.706Z,1.63
2023-01-13T10:22:09.278Z,1.83
2023-01-13T10:34:29.976Z,1.70
2023-01-13T10:37:31.686Z,1.55
2023-01-13T10:40:33.503Z,1.58
2023-01-13T10:43:35.313Z,1.90
2023-01-13T10:46:53.544Z,1.90
2023-01-13T10:50:19.400Z,1.70
2023-01-13T10:53:25.329Z,1.33
2023-01-13T10:56:33.781Z,1.95
2023-01-13T10:59:35.624Z,1.70
2023-01-13T11:02:38.629Z,1.85
2023-01-13T11:05:47.615Z,2.90
2023-01-13T11:08:51.645Z,2.80
2023-01-13T11:11:56.629Z,13.77
2023-01-13T11:15:03.874Z,3.80
2023-01-13T11:18:17.255Z,2.60
2023-01-13T11:21:30.344Z,1.65
2023-01-13T11:24:50.811Z,2.53
2023-01-13T11:28:12.577Z,2.05
2023-01-13T11:32:03.741Z,1.77
2023-01-13T11:40:04.159Z,2.50
2023-01-13T11:43:45.021Z,2.00
2023-01-13T11:48:01.231Z,2.00
2023-01-13T11:56:02.368Z,3.13
2023-01-13T12:00:23.579Z,1.88
2023-01-13T12:52:09.152Z,2.75
2023-01-13T12:55:15.927Z,2.45
2023-01-13T12:58:18.580Z,2.42
2023-01-13T13:01:40.717Z,2.83
2023-01-13T13:04:49.667Z,2.20
2023-01-13T13:08:14.706Z,1.65
2023-01-13T13:11:39.703Z,2.75
2023-01-13T13:18:16.922Z,2.33
2023-01-13T13:21:18.902Z,2.05
2023-01-13T13:24:20.724Z,1.98
2023-01-13T13:27:37.944Z,2.15
2023-01-13T13:30:46.113Z,2.35
2023-01-13T13:34:28.435Z,2.00
2023-01-13T13:38:22.968Z,2.10
2023-01-13T13:41:44.292Z,1.88
2023-01-13T13:45:06.495Z,1.90
2023-01-13T13:48:29.314Z,2.10
2023-01-13T13:51:42.648Z,1.90
2023-01-13T13:54:47.977Z,1.83
2023-01-13T13:57:52.271Z,1.67
2023-01-13T14:00:55.205Z,1.73
2023-01-13T14:04:32.887Z,2.38
2023-01-13T14:07:46.583Z,1.60
2023-01-13T14:10:48.494Z,2.13
2023-01-13T14:14:12.423Z,2.00
2023-01-13T14:17:29.987Z,2.20
2023-01-13T14:20:34.578Z,1.80
2023-01-13T14:23:36.316Z,1.77
2023-01-13T14:26:50.209Z,1.90
2023-01-13T14:30:20.117Z,1.83
2023-01-13T14:33:31.087Z,1.60
2023-01-13T14:36:32.648Z,1.60
2023-01-13T14:40:06.714Z,1.33
2023-01-13T14:43:13.297Z,1.75
2023-01-13T14:49:42.438Z,1.80
2023-01-13T14:52:50.226Z,1.48
2023-01-13T14:55:56.299Z,2.40
2023-01-13T14:59:24.402Z,2.13
2023-01-13T15:02:38.705Z,1.98
2023-01-13T15:05:45.660Z,2.50
2023-01-13T15:08:50.501Z,2.00
2023-01-13T15:11:54.336Z,2.80
2023-01-13T15:14:56.951Z,2.35
2023-01-13T15:18:21.550Z,2.30
2023-01-13T15:21:26.620Z,2.60
2023-01-13T15:24:28.229Z,2.60
2023-01-13T15:27:53.101Z,2.35
2023-01-13T15:31:00.614Z,2.08
2023-01-13T15:34:12.412Z,2.10
2023-01-13T15:37:17.151Z,2.08
2023-01-13T15:40:22.190Z,2.10
2023-01-13T15:43:52.430Z,4.50
2023-01-13T15:47:14.815Z,6.95
2023-01-13T15:50:20.870Z,2.88
2023-01-13T15:53:24.847Z,2.72
2023-01-13T15:56:29.044Z,2.60
2023-01-13T15:59:30.870Z,3.25
2023-01-13T16:02:37.833Z,3.10
2023-01-13T16:05:40.727Z,2.63
2023-01-13T16:08:51.095Z,2.67
2023-01-13T16:11:59.308Z,2.40
2023-01-13T16:15:11.779Z,2.22
2023-01-13T16:18:24.501Z,2.28
2023-01-13T16:21:32.695Z,2.20
2023-01-13T16:24:34.639Z,2.60
2023-01-13T16:27:38.648Z,3.10
2023-01-13T16:30:40.964Z,2.47
2023-01-13T16:33:42.991Z,1.83
2023-01-13T16:36:48.177Z,2.25
2023-01-13T16:39:50.819Z,2.13
2023-01-13T16:42:53.241Z,2.10
2023-01-13T16:45:54.976Z,2.28
2023-01-13T16:49:01.646Z,1.70
2023-01-13T16:55:05.198Z,2.17
2023-01-13T16:58:14.948Z,3.00
2023-01-13T17:01:31.810Z,2.60
2023-01-13T17:04:33.762Z,2.40
2023-01-13T17:07:35.671Z,3.00
2023-01-13T17:10:40.453Z,2.30
2023-01-13T17:13:42.412Z,2.15
2023-01-13T17:16:45.023Z,2.00
2023-01-13T17:19:46.904Z,2.22
2023-01-13T17:22:57.744Z,2.30
2023-01-13T17:25:59.898Z,2.40
2023-01-13T17:29:02.401Z,1.95
2023-01-13T17:32:04.796Z,1.90
2023-01-13T17:35:10.832Z,6.13
2023-01-13T17:38:16.552Z,6.97
2023-01-13T17:41:50.838Z,5.50
2023-01-13T17:45:13.008Z,5.75
2023-01-13T17:48:21.508Z,6.07
2023-01-13T17:51:25.513Z,3.55
2023-01-13T17:54:27.882Z,2.70
2023-01-13T17:57:29.813Z,2.60
2023-01-13T18:00:35.991Z,3.17
2023-01-13T18:03:41.197Z,3.15
2023-01-13T18:06:43.332Z,2.22
2023-01-13T18:09:45.179Z,2.50
2023-01-13T18:12:47.129Z,2.40
2023-01-13T18:16:15.544Z,2.15
2023-01-13T18:19:37.374Z,2.80
2023-01-13T18:22:57.807Z,3.45
2023-01-13T18:26:21.670Z,2.97
2023-01-13T18:29:23.462Z,3.50
2023-01-13T18:32:50.748Z,3.42
2023-01-13T18:35:52.958Z,3.38
2023-01-13T18:38:54.673Z,3.17
2023-01-13T18:42:15.354Z,3.40
2023-01-13T18:45:29.597Z,2.78
2023-01-13T18:48:57.412Z,3.13
2023-01-13T18:51:59.208Z,3.30
2023-01-13T18:55:31.136Z,3.08
2023-01-13T18:58:33.344Z,2.90
2023-01-13T19:01:37.072Z,2.53
2023-01-13T19:04:43.361Z,2.90
2023-01-13T19:07:50.493Z,2.47
2023-01-13T19:10:56.399Z,2.60
2023-01-13T19:14:02.128Z,2.85
2023-01-13T19:17:19.172Z,2.50
2023-01-13T19:23:22.770Z,4.70
2023-01-13T19:29:52.074Z,3.10
2023-01-13T19:32:55.463Z,3.92
2023-01-13T19:36:04.356Z,3.85
2023-01-13T19:39:06.254Z,3.45
2023-01-13T19:42:26.826Z,3.85
2023-01-13T19:45:30.675Z,3.55
2023-01-13T19:48:33.224Z,3.13
2023-01-13T19:51:34.945Z,3.03
2023-01-13T19:54:36.751Z,3.05
2023-01-13T19:57:39.942Z,2.67
2023-01-13T20:01:22.198Z,3.17
2023-01-13T20:04:19.325Z,2.80
2023-01-13T20:07:21.781Z,2.70
2023-01-13T20:10:29.824Z,2.50
2023-01-13T20:13:39.626Z,2.50
2023-01-13T20:16:44.362Z,2.95
2023-01-13T20:19:46.847Z,2.58
2023-01-13T20:22:51.587Z,3.20
2023-01-13T20:25:54.094Z,2.90
2023-01-13T20:28:56.352Z,2.42
2023-01-13T20:32:01.330Z,2.45
2023-01-13T20:35:27.920Z,2.55
2023-01-13T20:38:37.113Z,2.92
2023-01-13T20:45:29.428Z,3.28
2023-01-13T20:49:02.056Z,3.10
2023-01-13T20:55:17.767Z,4.05
2023-01-13T21:02:30.606Z,7.25
2023-01-13T21:05:33.579Z,5.38
2023-01-13T21:08:53.849Z,3.92
2023-01-13T21:12:21.730Z,4.72
2023-01-13T21:15:57.275Z,4.93
2023-01-13T21:19:11.619Z,4.38
2023-01-13T21:22:24.849Z,3.65
2023-01-13T21:25:27.902Z,6.32
2023-01-13T21:28:32.076Z,3.10
2023-01-13T21:31:33.917Z,4.47
2023-01-13T21:34:35.751Z,3.88
2023-01-13T21:37:38.223Z,3.72
2023-01-13T21:40:40.114Z,4.13
2023-01-13T21:44:00.489Z,4.35
2023-01-13T21:47:22.209Z,3.70
2023-01-13T21:50:28.665Z,2.50
2023-01-13T21:53:30.345Z,3.03
2023-01-13T21:56:32.304Z,2.50
2023-01-13T21:59:34.196Z,3.10
2023-01-13T22:02:36.586Z,3.00
2023-01-13T22:05:38.640Z,2.42
2023-01-13T22:08:40.553Z,2.22
2023-01-13T22:11:42.150Z,2.20
2023-01-13T22:14:43.843Z,2.40
2023-01-13T22:17:48.321Z,2.50
2023-01-13T22:20:50.667Z,2.13
2023-01-13T22:23:52.408Z,2.67
2023-01-13T22:26:54.408Z,2.42
2023-01-13T22:29:57.592Z,2.10
2023-01-13T22:33:00.304Z,2.10
2023-01-13T22:36:01.893Z,2.60
2023-01-13T22:39:04.842Z,2.30
2023-01-13T22:42:07.270Z,2.22
2023-01-13T22:45:13.397Z,2.28
2023-01-13T22:48:15.091Z,2.22
2023-01-13T22:51:18.749Z,1.58
2023-01-13T22:54:20.529Z,1.70
2023-01-13T22:57:24.039Z,1.80
2023-01-13T23:00:25.772Z,1.92
2023-01-13T23:03:30.454Z,2.35
2023-01-13T23:06:33.670Z,2.10
2023-01-13T23:09:35.838Z,2.13
2023-01-13T23:12:37.494Z,1.60
2023-01-13T23:15:39.095Z,2.35
2023-01-13T23:18:42.669Z,2.28
2023-01-13T23:21:44.338Z,2.10
2023-01-13T23:24:46.012Z,1.98
2023-01-13T23:27:47.608Z,2.05
2023-01-13T23:30:50.179Z,2.00
2023-01-13T23:33:51.792Z,1.88
2023-01-13T23:36:53.450Z,1.83
2023-01-13T23:39:55.068Z,1.85
2023-01-13T23:42:56.771Z,2.35
2023-01-13T23:46:24.699Z,1.90
2023-01-13T23:49:26.424Z,2.10
2023-01-13T23:52:28.044Z,2.60
2023-01-13T23:55:29.706Z,1.92
2023-01-13T23:58:31.955Z,1.70
